Main page
METAR-TAF:

METAR-TAF

Airports :

Beauvechain Air Base

Beauvechain, Belgium

latitude: 50-45N, longitude: 004-46E, elevation: 105 m

Current weather observation

The report was made 22 minutes ago, at 09:55 UTC
Wind 5 kt from the East/Northeast
Temperature 12°C
Humidity 88%
Pressure 1025 hPa
Visibility: 6000 m
Broken clouds at a height of 1000 ft

METAR: EBBE 190955Z 07005KT 6000 BKN010 12/10 Q1025 BLACKGRN WHT TEMPO GRN

Time: 12:17 (10:17 UTC)

Forecast

The report was made 1 hour and 36 minutes ago, at 08:41 UTC
Forecast valid from 19 at 10 UTC to 19 at 19 UTC
Wind 6 kt from the North/Northeast
Visibility 10 km or more
Scattered clouds at a height of 4000 ft

TAF: EBBE 190841Z 1910/1919 03006KT 9999 SCT040

Weather observations and forecasts of more than 4000 airports (METAR and TAF reports).

The available stations are represented by yellow and red dots on the map.

Hover mouse over dot to see the name of the station.

Then click to see weather observations and forecasts.

To change the map : click on the green buttons with a black cross to zoom in, on the green button with a dash to zoom out, or on the green arrows for adjacent maps.


METAR-TAF: